This is the latest recevied weather packets stored in our database for station/object N5SRF. If no packets are shown the sender has not sent any weather packets the latest 10 day(s).
| Time | Temp. | Humidity | Pressure | Rain* | Wind** | Luminosity | Snow |
|---|---|---|---|---|---|---|---|
| 1788120951 | 36.11° C | 46% | 1018.6 hPa | 0 mm | - | 678 W/m² | - |
| 1788120646 | 36.11° C | 46% | 1018.6 hPa | 0 mm | - | 700 W/m² | - |
| 1788120341 | 36.67° C | 45% | 1018.9 hPa | 0 mm | - | 661 W/m² | - |
| 1788120040 | 36.11° C | 44% | 1018.9 hPa | 0 mm | - | 689 W/m² | - |
| 1788119736 | 36.11° C | 45% | 1018.7 hPa | 0 mm | - | 199 W/m² | - |
| 1788119434 | 36.67° C | 43% | 1019.1 hPa | 0 mm | - | 738 W/m² | - |
| 1788119133 | 36.11° C | 45% | 1018.8 hPa | 0 mm | - | 741 W/m² | - |
| 1788118833 | 35.56° C | 45% | 1018.9 hPa | 0 mm | - | 274 W/m² | - |
| 1788118532 | 34.44° C | 51% | 1019.2 hPa | 0 mm | - | 775 W/m² | - |
| 1788118228 | 34.44° C | 51% | 1019.2 hPa | 0 mm | - | 163 W/m² | - |
| 1788117924 | 33.89° C | 53% | 1019.5 hPa | 0 mm | - | 143 W/m² | - |
| 1788117619 | 34.44° C | 52% | 1019.7 hPa | 0 mm | - | 152 W/m² | - |
| 1788117314 | 35° C | 51% | 1019.5 hPa | 0 mm | - | 219 W/m² | - |
| 1788117009 | 35.56° C | 51% | 1019.5 hPa | 0 mm | - | 525 W/m² | - |
| 1788116704 | 35° C | 54% | 1019.5 hPa | 0 mm | - | 239 W/m² | - |
| 1788116402 | 34.44° C | 53% | 1019.8 hPa | 0 mm | - | 661 W/m² | - |
| 1788116098 | 34.44° C | 53% | 1019.8 hPa | 0 mm | - | 166 W/m² | - |
| 1788115793 | 34.44° C | 55% | 1019.8 hPa | 0 mm | - | 135 W/m² | - |
| 1788115493 | 34.44° C | 54% | 1020 hPa | 0 mm | - | 156 W/m² | - |
| 1788115188 | 34.44° C | 55% | 1020.1 hPa | 0 mm | - | 397 W/m² | - |
| 1788114888 | 35° C | 55% | 1020.2 hPa | 0 mm | - | 277 W/m² | - |
| 1788114583 | 35.56° C | 53% | 1020.1 hPa | 0 mm | - | 512 W/m² | - |
| 1788114278 | 35° C | 55% | 1020.3 hPa | 0 mm | - | 794 W/m² | - |
| 1788113969 | 35.56° C | 50% | 1020.5 hPa | 0 mm | - | 789 W/m² | - |
| 1788113664 | 36.11° C | 49% | 1020.5 hPa | 0 mm | - | 189 W/m² | - |
* Rain latest hour (hover to see other rain measurements)
** Current wind speed in m/s (hover to see current wind gust speed)